sensor_id;sensor_type;location;lat;lon;timestamp;P1;durP1;ratioP1;P2;durP2;ratioP2
71360;SDS011;59166;48.908;1.870;2022-12-18T00:04:54;36.40;;;13.13;;
71360;SDS011;59166;48.908;1.870;2022-12-18T00:09:55;36.03;;;12.67;;
71360;SDS011;59166;48.908;1.870;2022-12-18T00:14:57;36.53;;;13.93;;
71360;SDS011;59166;48.908;1.870;2022-12-18T00:19:58;35.73;;;12.53;;
71360;SDS011;59166;48.908;1.870;2022-12-18T00:24:59;39.33;;;13.93;;
71360;SDS011;59166;48.908;1.870;2022-12-18T00:30:01;37.37;;;12.70;;
71360;SDS011;59166;48.908;1.870;2022-12-18T00:35:03;35.15;;;13.02;;
71360;SDS011;59166;48.908;1.870;2022-12-18T00:40:05;33.35;;;11.13;;
71360;SDS011;59166;48.908;1.870;2022-12-18T00:45:08;32.17;;;11.97;;
71360;SDS011;59166;48.908;1.870;2022-12-18T00:50:10;34.88;;;12.02;;
71360;SDS011;59166;48.908;1.870;2022-12-18T00:55:11;34.88;;;12.18;;
71360;SDS011;59166;48.908;1.870;2022-12-18T01:00:14;33.80;;;12.07;;
71360;SDS011;59166;48.908;1.870;2022-12-18T01:05:15;32.30;;;10.90;;
71360;SDS011;59166;48.908;1.870;2022-12-18T01:10:17;36.28;;;12.60;;
71360;SDS011;59166;48.908;1.870;2022-12-18T01:15:19;34.27;;;11.87;;
71360;SDS011;59166;48.908;1.870;2022-12-18T01:20:20;33.67;;;12.60;;
71360;SDS011;59166;48.908;1.870;2022-12-18T01:25:21;31.95;;;11.45;;
71360;SDS011;59166;48.908;1.870;2022-12-18T01:30:23;36.23;;;12.23;;
71360;SDS011;59166;48.908;1.870;2022-12-18T01:35:24;32.43;;;11.60;;
71360;SDS011;59166;48.908;1.870;2022-12-18T01:40:25;35.27;;;11.77;;
71360;SDS011;59166;48.908;1.870;2022-12-18T01:45:28;35.17;;;12.60;;
71360;SDS011;59166;48.908;1.870;2022-12-18T01:50:31;35.60;;;12.35;;
71360;SDS011;59166;48.908;1.870;2022-12-18T01:55:36;31.87;;;12.03;;
71360;SDS011;59166;48.908;1.870;2022-12-18T02:00:42;32.67;;;12.15;;
71360;SDS011;59166;48.908;1.870;2022-12-18T02:05:44;39.33;;;12.45;;
71360;SDS011;59166;48.908;1.870;2022-12-18T02:10:48;33.93;;;12.47;;
71360;SDS011;59166;48.908;1.870;2022-12-18T02:16:00;32.17;;;11.77;;
71360;SDS011;59166;48.908;1.870;2022-12-18T02:21:09;34.13;;;11.73;;
71360;SDS011;59166;48.908;1.870;2022-12-18T02:26:20;35.30;;;12.53;;
71360;SDS011;59166;48.908;1.870;2022-12-18T02:31:27;33.37;;;12.53;;
71360;SDS011;59166;48.908;1.870;2022-12-18T02:36:32;34.55;;;12.57;;
71360;SDS011;59166;48.908;1.870;2022-12-18T02:41:38;35.70;;;12.15;;
71360;SDS011;59166;48.908;1.870;2022-12-18T02:46:40;38.43;;;12.50;;
71360;SDS011;59166;48.908;1.870;2022-12-18T02:51:46;37.35;;;13.48;;
71360;SDS011;59166;48.908;1.870;2022-12-18T02:56:53;35.75;;;12.70;;
71360;SDS011;59166;48.908;1.870;2022-12-18T03:01:57;36.63;;;13.07;;
71360;SDS011;59166;48.908;1.870;2022-12-18T03:07:02;41.35;;;13.80;;
71360;SDS011;59166;48.908;1.870;2022-12-18T03:12:10;35.38;;;12.95;;
71360;SDS011;59166;48.908;1.870;2022-12-18T03:17:17;35.57;;;12.83;;
71360;SDS011;59166;48.908;1.870;2022-12-18T03:22:21;34.83;;;12.73;;
71360;SDS011;59166;48.908;1.870;2022-12-18T03:27:25;38.28;;;13.88;;
71360;SDS011;59166;48.908;1.870;2022-12-18T03:32:31;36.72;;;13.15;;
71360;SDS011;59166;48.908;1.870;2022-12-18T03:37:36;33.33;;;12.53;;
71360;SDS011;59166;48.908;1.870;2022-12-18T03:42:39;34.33;;;13.13;;
71360;SDS011;59166;48.908;1.870;2022-12-18T03:47:50;35.05;;;12.80;;
71360;SDS011;59166;48.908;1.870;2022-12-18T03:53:00;33.30;;;12.83;;
71360;SDS011;59166;48.908;1.870;2022-12-18T03:58:10;33.33;;;12.50;;
71360;SDS011;59166;48.908;1.870;2022-12-18T04:03:15;35.92;;;13.45;;
71360;SDS011;59166;48.908;1.870;2022-12-18T04:08:19;36.90;;;13.27;;
71360;SDS011;59166;48.908;1.870;2022-12-18T04:13:24;32.03;;;13.33;;
71360;SDS011;59166;48.908;1.870;2022-12-18T04:18:27;38.63;;;13.35;;
71360;SDS011;59166;48.908;1.870;2022-12-18T04:23:28;34.30;;;14.23;;
71360;SDS011;59166;48.908;1.870;2022-12-18T04:28:30;38.97;;;14.20;;
71360;SDS011;59166;48.908;1.870;2022-12-18T04:33:31;36.20;;;13.80;;
71360;SDS011;59166;48.908;1.870;2022-12-18T04:38:32;33.23;;;12.67;;
71360;SDS011;59166;48.908;1.870;2022-12-18T04:43:34;37.05;;;12.73;;
71360;SDS011;59166;48.908;1.870;2022-12-18T04:48:35;36.43;;;13.10;;
71360;SDS011;59166;48.908;1.870;2022-12-18T04:53:37;34.35;;;13.10;;
71360;SDS011;59166;48.908;1.870;2022-12-18T04:58:40;36.53;;;13.43;;
71360;SDS011;59166;48.908;1.870;2022-12-18T05:03:42;34.63;;;12.90;;
71360;SDS011;59166;48.908;1.870;2022-12-18T05:08:43;39.05;;;13.45;;
71360;SDS011;59166;48.908;1.870;2022-12-18T05:13:45;37.37;;;13.20;;
71360;SDS011;59166;48.908;1.870;2022-12-18T05:18:46;37.20;;;13.77;;
71360;SDS011;59166;48.908;1.870;2022-12-18T05:23:47;39.60;;;14.38;;
71360;SDS011;59166;48.908;1.870;2022-12-18T05:28:49;33.27;;;13.07;;
71360;SDS011;59166;48.908;1.870;2022-12-18T05:33:50;40.63;;;14.73;;
71360;SDS011;59166;48.908;1.870;2022-12-18T05:38:51;41.67;;;13.83;;
71360;SDS011;59166;48.908;1.870;2022-12-18T05:43:53;34.85;;;13.63;;
71360;SDS011;59166;48.908;1.870;2022-12-18T05:48:54;32.83;;;13.32;;
71360;SDS011;59166;48.908;1.870;2022-12-18T05:53:55;32.23;;;11.73;;
71360;SDS011;59166;48.908;1.870;2022-12-18T05:58:57;35.03;;;12.43;;
71360;SDS011;59166;48.908;1.870;2022-12-18T06:03:58;35.87;;;12.73;;
71360;SDS011;59166;48.908;1.870;2022-12-18T06:08:59;33.55;;;12.38;;
71360;SDS011;59166;48.908;1.870;2022-12-18T06:14:02;36.17;;;12.73;;
71360;SDS011;59166;48.908;1.870;2022-12-18T06:19:05;37.17;;;13.32;;
71360;SDS011;59166;48.908;1.870;2022-12-18T06:24:06;34.92;;;13.55;;
71360;SDS011;59166;48.908;1.870;2022-12-18T06:29:08;41.37;;;13.40;;
71360;SDS011;59166;48.908;1.870;2022-12-18T06:34:09;35.72;;;12.27;;
71360;SDS011;59166;48.908;1.870;2022-12-18T06:39:10;35.95;;;12.52;;
71360;SDS011;59166;48.908;1.870;2022-12-18T06:44:12;32.87;;;12.20;;
71360;SDS011;59166;48.908;1.870;2022-12-18T06:49:13;37.97;;;13.35;;
71360;SDS011;59166;48.908;1.870;2022-12-18T06:54:14;35.07;;;13.73;;
71360;SDS011;59166;48.908;1.870;2022-12-18T06:59:17;34.57;;;14.10;;
71360;SDS011;59166;48.908;1.870;2022-12-18T07:04:18;36.88;;;14.05;;
71360;SDS011;59166;48.908;1.870;2022-12-18T07:09:19;36.33;;;13.47;;
71360;SDS011;59166;48.908;1.870;2022-12-18T07:14:21;33.90;;;12.25;;
71360;SDS011;59166;48.908;1.870;2022-12-18T07:19:22;34.33;;;13.00;;
71360;SDS011;59166;48.908;1.870;2022-12-18T07:24:23;35.57;;;13.13;;
71360;SDS011;59166;48.908;1.870;2022-12-18T07:29:25;38.95;;;13.48;;
71360;SDS011;59166;48.908;1.870;2022-12-18T07:34:26;32.57;;;12.33;;
71360;SDS011;59166;48.908;1.870;2022-12-18T07:39:27;35.70;;;13.40;;
71360;SDS011;59166;48.908;1.870;2022-12-18T07:44:30;32.22;;;12.55;;
71360;SDS011;59166;48.908;1.870;2022-12-18T07:49:31;36.07;;;12.83;;
71360;SDS011;59166;48.908;1.870;2022-12-18T07:54:32;33.90;;;12.40;;
71360;SDS011;59166;48.908;1.870;2022-12-18T07:59:35;32.97;;;11.85;;
71360;SDS011;59166;48.908;1.870;2022-12-18T08:04:37;33.10;;;12.40;;
71360;SDS011;59166;48.908;1.870;2022-12-18T08:09:38;33.03;;;13.17;;
71360;SDS011;59166;48.908;1.870;2022-12-18T08:14:40;34.92;;;12.95;;
71360;SDS011;59166;48.908;1.870;2022-12-18T08:19:41;32.60;;;11.73;;
71360;SDS011;59166;48.908;1.870;2022-12-18T08:24:42;32.27;;;12.13;;
71360;SDS011;59166;48.908;1.870;2022-12-18T08:29:44;32.40;;;12.93;;
71360;SDS011;59166;48.908;1.870;2022-12-18T08:34:45;42.00;;;15.87;;
71360;SDS011;59166;48.908;1.870;2022-12-18T08:39:46;41.33;;;15.85;;
71360;SDS011;59166;48.908;1.870;2022-12-18T08:44:48;40.67;;;15.97;;
71360;SDS011;59166;48.908;1.870;2022-12-18T08:49:49;46.97;;;19.70;;
71360;SDS011;59166;48.908;1.870;2022-12-18T08:54:50;41.70;;;16.20;;
71360;SDS011;59166;48.908;1.870;2022-12-18T08:59:52;40.70;;;16.00;;
71360;SDS011;59166;48.908;1.870;2022-12-18T09:04:53;37.15;;;14.60;;
71360;SDS011;59166;48.908;1.870;2022-12-18T09:09:54;40.07;;;14.37;;
71360;SDS011;59166;48.908;1.870;2022-12-18T09:14:57;36.85;;;14.68;;
71360;SDS011;59166;48.908;1.870;2022-12-18T09:19:58;37.20;;;15.10;;
71360;SDS011;59166;48.908;1.870;2022-12-18T09:24:58;34.33;;;13.07;;
71360;SDS011;59166;48.908;1.870;2022-12-18T09:30:01;35.63;;;14.23;;
71360;SDS011;59166;48.908;1.870;2022-12-18T09:35:03;36.73;;;14.77;;
71360;SDS011;59166;48.908;1.870;2022-12-18T09:40:05;38.53;;;14.57;;
71360;SDS011;59166;48.908;1.870;2022-12-18T09:45:08;42.83;;;16.00;;
71360;SDS011;59166;48.908;1.870;2022-12-18T09:50:16;35.83;;;14.65;;
71360;SDS011;59166;48.908;1.870;2022-12-18T09:55:23;39.13;;;15.23;;
71360;SDS011;59166;48.908;1.870;2022-12-18T10:00:30;40.50;;;15.02;;
71360;SDS011;59166;48.908;1.870;2022-12-18T10:05:35;37.17;;;13.93;;
71360;SDS011;59166;48.908;1.870;2022-12-18T10:10:46;34.37;;;12.50;;
71360;SDS011;59166;48.908;1.870;2022-12-18T10:15:54;36.80;;;13.52;;
71360;SDS011;59166;48.908;1.870;2022-12-18T10:21:05;38.03;;;15.90;;
71360;SDS011;59166;48.908;1.870;2022-12-18T10:26:12;33.73;;;14.80;;
71360;SDS011;59166;48.908;1.870;2022-12-18T10:31:15;36.83;;;13.70;;
71360;SDS011;59166;48.908;1.870;2022-12-18T10:36:17;34.92;;;13.18;;
71360;SDS011;59166;48.908;1.870;2022-12-18T10:41:25;34.37;;;12.77;;
71360;SDS011;59166;48.908;1.870;2022-12-18T10:46:28;32.92;;;12.80;;
71360;SDS011;59166;48.908;1.870;2022-12-18T10:51:29;28.30;;;12.77;;
71360;SDS011;59166;48.908;1.870;2022-12-18T10:56:33;40.07;;;15.50;;
71360;SDS011;59166;48.908;1.870;2022-12-18T11:01:47;36.53;;;14.75;;
71360;SDS011;59166;48.908;1.870;2022-12-18T11:06:54;37.42;;;14.27;;
71360;SDS011;59166;48.908;1.870;2022-12-18T11:11:58;32.07;;;14.07;;
71360;SDS011;59166;48.908;1.870;2022-12-18T11:17:02;39.03;;;15.50;;
71360;SDS011;59166;48.908;1.870;2022-12-18T11:22:16;40.55;;;16.90;;
71360;SDS011;59166;48.908;1.870;2022-12-18T11:27:20;39.38;;;16.88;;
71360;SDS011;59166;48.908;1.870;2022-12-18T11:32:33;34.93;;;15.00;;
71360;SDS011;59166;48.908;1.870;2022-12-18T11:37:36;41.70;;;16.30;;
71360;SDS011;59166;48.908;1.870;2022-12-18T11:42:41;34.38;;;13.88;;
71360;SDS011;59166;48.908;1.870;2022-12-18T11:47:49;42.10;;;16.60;;
71360;SDS011;59166;48.908;1.870;2022-12-18T11:52:56;37.17;;;15.63;;
71360;SDS011;59166;48.908;1.870;2022-12-18T11:57:58;37.80;;;14.63;;
71360;SDS011;59166;48.908;1.870;2022-12-18T12:03:22;35.47;;;14.53;;
71360;SDS011;59166;48.908;1.870;2022-12-18T12:08:42;35.95;;;14.88;;
71360;SDS011;59166;48.908;1.870;2022-12-18T12:13:56;36.53;;;15.30;;
71360;SDS011;59166;48.908;1.870;2022-12-18T12:19:15;37.70;;;15.10;;
71360;SDS011;59166;48.908;1.870;2022-12-18T12:24:31;38.30;;;15.13;;
71360;SDS011;59166;48.908;1.870;2022-12-18T12:29:47;37.55;;;16.15;;
71360;SDS011;59166;48.908;1.870;2022-12-18T12:35:02;37.77;;;17.23;;
71360;SDS011;59166;48.908;1.870;2022-12-18T12:40:12;35.47;;;15.33;;
71360;SDS011;59166;48.908;1.870;2022-12-18T12:45:18;35.28;;;14.82;;
71360;SDS011;59166;48.908;1.870;2022-12-18T12:50:28;39.50;;;15.55;;
71360;SDS011;59166;48.908;1.870;2022-12-18T12:55:34;40.87;;;15.57;;
71360;SDS011;59166;48.908;1.870;2022-12-18T13:00:36;36.17;;;14.88;;
71360;SDS011;59166;48.908;1.870;2022-12-18T13:05:48;41.38;;;16.58;;
71360;SDS011;59166;48.908;1.870;2022-12-18T13:10:54;35.03;;;14.30;;
71360;SDS011;59166;48.908;1.870;2022-12-18T13:16:03;33.95;;;13.32;;
71360;SDS011;59166;48.908;1.870;2022-12-18T13:21:11;31.00;;;13.55;;
71360;SDS011;59166;48.908;1.870;2022-12-18T13:26:28;37.27;;;15.30;;
71360;SDS011;59166;48.908;1.870;2022-12-18T13:42:41;30.10;;;13.45;;
71360;SDS011;59166;48.908;1.870;2022-12-18T13:47:42;30.37;;;13.30;;
71360;SDS011;59166;48.908;1.870;2022-12-18T13:52:45;33.72;;;13.45;;
71360;SDS011;59166;48.908;1.870;2022-12-18T13:57:45;34.03;;;13.77;;
71360;SDS011;59166;48.908;1.870;2022-12-18T14:02:46;32.47;;;13.55;;
71360;SDS011;59166;48.908;1.870;2022-12-18T14:07:48;36.20;;;13.90;;
71360;SDS011;59166;48.908;1.870;2022-12-18T14:12:50;31.55;;;13.23;;
71360;SDS011;59166;48.908;1.870;2022-12-18T14:17:51;32.80;;;13.52;;
71360;SDS011;59166;48.908;1.870;2022-12-18T14:22:55;32.23;;;13.50;;
71360;SDS011;59166;48.908;1.870;2022-12-18T14:28:02;30.15;;;13.15;;
71360;SDS011;59166;48.908;1.870;2022-12-18T14:33:10;34.92;;;13.82;;
71360;SDS011;59166;48.908;1.870;2022-12-18T14:38:24;30.80;;;13.10;;
71360;SDS011;59166;48.908;1.870;2022-12-18T14:43:31;30.80;;;12.98;;
71360;SDS011;59166;48.908;1.870;2022-12-18T14:48:34;32.78;;;12.88;;
71360;SDS011;59166;48.908;1.870;2022-12-18T14:53:39;31.97;;;12.80;;
71360;SDS011;59166;48.908;1.870;2022-12-18T14:58:45;29.73;;;13.33;;
71360;SDS011;59166;48.908;1.870;2022-12-18T15:03:48;37.90;;;14.27;;
71360;SDS011;59166;48.908;1.870;2022-12-18T15:08:50;32.83;;;13.90;;
71360;SDS011;59166;48.908;1.870;2022-12-18T15:13:51;33.55;;;14.00;;
71360;SDS011;59166;48.908;1.870;2022-12-18T15:18:52;32.73;;;13.70;;
71360;SDS011;59166;48.908;1.870;2022-12-18T15:23:55;31.80;;;13.10;;
71360;SDS011;59166;48.908;1.870;2022-12-18T15:28:58;29.77;;;12.48;;
71360;SDS011;59166;48.908;1.870;2022-12-18T15:39:21;26.20;;;11.10;;
71360;SDS011;59166;48.908;1.870;2022-12-18T15:44:22;31.08;;;12.82;;
71360;SDS011;59166;48.908;1.870;2022-12-18T15:49:24;27.23;;;11.27;;
71360;SDS011;59166;48.908;1.870;2022-12-18T15:54:26;26.80;;;12.13;;
71360;SDS011;59166;48.908;1.870;2022-12-18T15:59:27;28.03;;;11.77;;
71360;SDS011;59166;48.908;1.870;2022-12-18T16:04:28;30.63;;;12.25;;
71360;SDS011;59166;48.908;1.870;2022-12-18T16:09:30;26.77;;;11.20;;
71360;SDS011;59166;48.908;1.870;2022-12-18T16:14:31;28.05;;;11.73;;
71360;SDS011;59166;48.908;1.870;2022-12-18T16:19:32;28.88;;;12.20;;
71360;SDS011;59166;48.908;1.870;2022-12-18T16:24:34;26.70;;;11.27;;
71360;SDS011;59166;48.908;1.870;2022-12-18T16:29:34;29.70;;;12.20;;
71360;SDS011;59166;48.908;1.870;2022-12-18T16:34:35;27.47;;;11.53;;
71360;SDS011;59166;48.908;1.870;2022-12-18T16:39:37;30.03;;;12.93;;
71360;SDS011;59166;48.908;1.870;2022-12-18T16:44:39;30.67;;;13.18;;
71360;SDS011;59166;48.908;1.870;2022-12-18T16:49:40;31.35;;;13.18;;
71360;SDS011;59166;48.908;1.870;2022-12-18T16:54:42;29.13;;;11.73;;
71360;SDS011;59166;48.908;1.870;2022-12-18T16:59:42;27.37;;;11.97;;
71360;SDS011;59166;48.908;1.870;2022-12-18T17:04:45;26.40;;;10.83;;
71360;SDS011;59166;48.908;1.870;2022-12-18T17:09:47;25.20;;;11.23;;
71360;SDS011;59166;48.908;1.870;2022-12-18T17:14:47;29.02;;;11.80;;
71360;SDS011;59166;48.908;1.870;2022-12-18T17:19:48;24.60;;;10.90;;
71360;SDS011;59166;48.908;1.870;2022-12-18T17:24:50;23.08;;;10.82;;
71360;SDS011;59166;48.908;1.870;2022-12-18T17:29:51;23.60;;;10.23;;
71360;SDS011;59166;48.908;1.870;2022-12-18T17:34:53;24.40;;;10.23;;
71360;SDS011;59166;48.908;1.870;2022-12-18T17:39:55;26.20;;;10.87;;
71360;SDS011;59166;48.908;1.870;2022-12-18T17:44:55;22.45;;;9.82;;
71360;SDS011;59166;48.908;1.870;2022-12-18T17:49:56;23.70;;;10.43;;
71360;SDS011;59166;48.908;1.870;2022-12-18T17:54:59;22.67;;;9.85;;
71360;SDS011;59166;48.908;1.870;2022-12-18T17:59:59;21.88;;;9.50;;
71360;SDS011;59166;48.908;1.870;2022-12-18T18:05:00;23.43;;;10.03;;
71360;SDS011;59166;48.908;1.870;2022-12-18T18:10:02;22.70;;;10.57;;
71360;SDS011;59166;48.908;1.870;2022-12-18T18:15:03;23.20;;;10.25;;
71360;SDS011;59166;48.908;1.870;2022-12-18T18:20:05;23.30;;;10.02;;
71360;SDS011;59166;48.908;1.870;2022-12-18T18:25:10;23.13;;;9.87;;
71360;SDS011;59166;48.908;1.870;2022-12-18T18:30:11;22.40;;;9.93;;
71360;SDS011;59166;48.908;1.870;2022-12-18T18:35:12;22.50;;;9.27;;
71360;SDS011;59166;48.908;1.870;2022-12-18T18:40:14;23.33;;;10.13;;
71360;SDS011;59166;48.908;1.870;2022-12-18T18:45:15;22.90;;;9.18;;
71360;SDS011;59166;48.908;1.870;2022-12-18T18:50:16;22.03;;;8.90;;
71360;SDS011;59166;48.908;1.870;2022-12-18T18:55:18;20.73;;;9.47;;
71360;SDS011;59166;48.908;1.870;2022-12-18T19:00:18;20.63;;;8.57;;
71360;SDS011;59166;48.908;1.870;2022-12-18T19:05:19;22.48;;;9.82;;
71360;SDS011;59166;48.908;1.870;2022-12-18T19:10:21;18.90;;;8.53;;
71360;SDS011;59166;48.908;1.870;2022-12-18T19:15:22;19.05;;;8.38;;
71360;SDS011;59166;48.908;1.870;2022-12-18T19:20:23;18.67;;;8.80;;
71360;SDS011;59166;48.908;1.870;2022-12-18T19:25:25;17.57;;;7.60;;
71360;SDS011;59166;48.908;1.870;2022-12-18T19:30:25;17.52;;;8.27;;
71360;SDS011;59166;48.908;1.870;2022-12-18T19:35:28;19.20;;;8.03;;
71360;SDS011;59166;48.908;1.870;2022-12-18T19:40:30;19.20;;;8.52;;
71360;SDS011;59166;48.908;1.870;2022-12-18T19:45:31;20.13;;;8.05;;
71360;SDS011;59166;48.908;1.870;2022-12-18T19:50:32;16.90;;;7.97;;
71360;SDS011;59166;48.908;1.870;2022-12-18T19:55:34;17.83;;;8.30;;
71360;SDS011;59166;48.908;1.870;2022-12-18T20:00:39;16.83;;;7.07;;
71360;SDS011;59166;48.908;1.870;2022-12-18T20:05:40;17.93;;;7.47;;
71360;SDS011;59166;48.908;1.870;2022-12-18T20:10:42;18.13;;;7.77;;
71360;SDS011;59166;48.908;1.870;2022-12-18T20:15:43;15.95;;;6.82;;
71360;SDS011;59166;48.908;1.870;2022-12-18T20:20:44;16.37;;;7.07;;
71360;SDS011;59166;48.908;1.870;2022-12-18T20:25:46;16.15;;;6.70;;
71360;SDS011;59166;48.908;1.870;2022-12-18T20:30:47;15.70;;;6.97;;
71360;SDS011;59166;48.908;1.870;2022-12-18T20:35:47;15.03;;;6.67;;
71360;SDS011;59166;48.908;1.870;2022-12-18T20:40:49;15.43;;;6.43;;
71360;SDS011;59166;48.908;1.870;2022-12-18T20:46:00;14.35;;;6.07;;
71360;SDS011;59166;48.908;1.870;2022-12-18T20:51:10;15.63;;;6.82;;
71360;SDS011;59166;48.908;1.870;2022-12-18T20:56:14;15.13;;;6.63;;
71360;SDS011;59166;48.908;1.870;2022-12-18T21:01:17;15.97;;;6.60;;
71360;SDS011;59166;48.908;1.870;2022-12-18T21:06:19;14.40;;;6.57;;
71360;SDS011;59166;48.908;1.870;2022-12-18T21:11:26;14.57;;;6.38;;
71360;SDS011;59166;48.908;1.870;2022-12-18T21:16:28;14.73;;;6.20;;
71360;SDS011;59166;48.908;1.870;2022-12-18T21:21:29;14.68;;;6.10;;
71360;SDS011;59166;48.908;1.870;2022-12-18T21:26:32;13.20;;;5.85;;
71360;SDS011;59166;48.908;1.870;2022-12-18T21:31:34;13.23;;;6.10;;
71360;SDS011;59166;48.908;1.870;2022-12-18T21:36:36;14.07;;;6.32;;
71360;SDS011;59166;48.908;1.870;2022-12-18T21:41:38;15.75;;;6.07;;
71360;SDS011;59166;48.908;1.870;2022-12-18T21:46:39;15.70;;;6.43;;
71360;SDS011;59166;48.908;1.870;2022-12-18T21:51:41;13.90;;;6.20;;
71360;SDS011;59166;48.908;1.870;2022-12-18T21:56:45;14.48;;;5.82;;
71360;SDS011;59166;48.908;1.870;2022-12-18T22:01:48;15.50;;;6.33;;
71360;SDS011;59166;48.908;1.870;2022-12-18T22:06:50;14.80;;;6.32;;
71360;SDS011;59166;48.908;1.870;2022-12-18T22:11:52;14.40;;;6.20;;
71360;SDS011;59166;48.908;1.870;2022-12-18T22:16:53;14.50;;;5.93;;
71360;SDS011;59166;48.908;1.870;2022-12-18T22:21:54;14.18;;;6.10;;
71360;SDS011;59166;48.908;1.870;2022-12-18T22:26:56;14.13;;;5.90;;
71360;SDS011;59166;48.908;1.870;2022-12-18T22:31:57;15.45;;;6.93;;
71360;SDS011;59166;48.908;1.870;2022-12-18T22:36:58;13.77;;;6.07;;
71360;SDS011;59166;48.908;1.870;2022-12-18T22:42:00;13.37;;;6.00;;
71360;SDS011;59166;48.908;1.870;2022-12-18T22:47:04;13.35;;;5.90;;
71360;SDS011;59166;48.908;1.870;2022-12-18T22:52:05;14.67;;;5.73;;
71360;SDS011;59166;48.908;1.870;2022-12-18T22:57:09;15.20;;;6.37;;
71360;SDS011;59166;48.908;1.870;2022-12-18T23:02:10;15.02;;;6.38;;
71360;SDS011;59166;48.908;1.870;2022-12-18T23:07:11;12.97;;;5.60;;
71360;SDS011;59166;48.908;1.870;2022-12-18T23:12:14;13.38;;;5.70;;
71360;SDS011;59166;48.908;1.870;2022-12-18T23:17:18;15.47;;;5.83;;
71360;SDS011;59166;48.908;1.870;2022-12-18T23:22:19;15.20;;;6.15;;
71360;SDS011;59166;48.908;1.870;2022-12-18T23:27:21;13.93;;;5.83;;
71360;SDS011;59166;48.908;1.870;2022-12-18T23:32:22;14.52;;;5.75;;
71360;SDS011;59166;48.908;1.870;2022-12-18T23:37:23;12.93;;;5.43;;
71360;SDS011;59166;48.908;1.870;2022-12-18T23:42:25;13.57;;;5.78;;
71360;SDS011;59166;48.908;1.870;2022-12-18T23:47:26;13.37;;;5.70;;
71360;SDS011;59166;48.908;1.870;2022-12-18T23:52:27;10.93;;;4.80;;
71360;SDS011;59166;48.908;1.870;2022-12-18T23:57:29;11.70;;;5.40;;
